Time;durP1;ratioP1;P1;durP2;ratioP2;P2;SDS_P1;SDS_P2;PMS_P1;PMS_P2;Temp;Humidity;BMP_temperature;BMP_pressure;BME280_temperature;BME280_humidity;BME280_pressure;Samples;Min_cycle;Max_cycle;Signal;HPM_P1;HPM_P2
2021/08/28 00:02:09;;;;;;;14.70;10.57;;;13.10;99.90;;;;;;5053515;28;20025;-69
2021/08/28 00:04:35;;;;;;;17.58;9.90;;;13.10;99.90;;;;;;5052116;28;20399;-69
2021/08/28 00:07:02;;;;;;;14.15;10.95;;;13.10;99.90;;;;;;5053241;28;20017;-69
2021/08/28 00:09:27;;;;;;;16.50;13.05;;;13.10;99.90;;;;;;5053468;28;20022;-69
2021/08/28 00:11:53;;;;;;;14.48;12.70;;;13.20;99.90;;;;;;5053492;28;20036;-70
2021/08/28 00:14:18;;;;;;;19.38;14.52;;;13.30;99.90;;;;;;5053149;28;20029;-70
2021/08/28 00:16:44;;;;;;;24.25;14.90;;;13.30;99.90;;;;;;5052876;28;20107;-70
2021/08/28 00:19:10;;;;;;;25.25;16.05;;;13.30;99.90;;;;;;5052951;28;20067;-70
2021/08/28 00:21:35;;;;;;;26.80;15.70;;;13.40;99.90;;;;;;5053370;28;20108;-69
2021/08/28 00:24:01;;;;;;;24.77;16.88;;;13.40;99.90;;;;;;5053379;28;20059;-70
2021/08/28 00:26:28;;;;;;;23.35;17.88;;;13.50;99.90;;;;;;5053458;28;20075;-69
2021/08/28 00:28:54;;;;;;;24.52;18.85;;;13.50;99.90;;;;;;5056448;28;20542;-70
2021/08/28 00:31:20;;;;;;;25.10;18.20;;;13.60;99.90;;;;;;5056932;28;20053;-70
2021/08/28 00:33:45;;;;;;;24.15;19.23;;;13.60;99.90;;;;;;5055093;28;20067;-69
2021/08/28 00:36:11;;;;;;;28.70;19.30;;;13.60;99.90;;;;;;5056860;28;20367;-70
2021/08/28 00:38:37;;;;;;;24.10;19.70;;;13.60;99.90;;;;;;5056817;28;20025;-70
2021/08/28 00:41:02;;;;;;;25.38;19.75;;;13.60;99.90;;;;;;5056446;28;20435;-69
2021/08/28 00:43:28;;;;;;;33.53;21.80;;;13.60;99.90;;;;;;5056421;28;20375;-69
2021/08/28 00:45:54;;;;;;;30.98;22.40;;;13.60;99.90;;;;;;5056659;28;20017;-69
2021/08/28 00:48:19;;;;;;;32.67;21.65;;;13.60;99.90;;;;;;5056052;28;20493;-70
2021/08/28 00:50:45;;;;;;;34.00;23.35;;;13.60;99.90;;;;;;5056569;28;20108;-69
2021/08/28 00:53:13;;;;;;;31.85;22.73;;;13.60;99.90;;;;;;5056279;28;20025;-69
2021/08/28 00:55:40;;;;;;;36.08;23.42;;;13.60;99.90;;;;;;5056435;28;20052;-69
2021/08/28 00:58:06;;;;;;;36.95;23.33;;;13.60;99.90;;;;;;5056087;28;20076;-69
2021/08/28 01:00:59;;;;;;;32.13;23.17;;;13.60;99.90;;;;;;5054827;28;20025;-69
2021/08/28 01:03:26;;;;;;;33.70;23.23;;;13.50;99.90;;;;;;5055239;28;20163;-70
2021/08/28 01:06:15;;;;;;;34.75;24.38;;;13.60;99.90;;;;;;5056315;28;20017;-69
2021/08/28 01:08:44;;;;;;;40.33;25.60;;;13.60;99.90;;;;;;5054683;28;20024;-70
2021/08/28 01:13:53;;;;;;;42.47;26.55;;;13.60;99.90;;;;;;5071724;28;20387;-69
2021/08/28 01:16:21;;;;;;;42.10;27.05;;;13.50;99.90;;;;;;5071106;28;20039;-69
2021/08/28 01:18:48;;;;;;;37.65;25.10;;;13.60;99.90;;;;;;5071365;28;20017;-69
2021/08/28 01:21:32;;;;;;;39.33;26.05;;;13.60;99.90;;;;;;5071301;28;20047;-69
2021/08/28 01:24:01;;;;;;;41.15;26.52;;;13.60;99.90;;;;;;5071246;28;20040;-69
2021/08/28 01:26:35;;;;;;;40.08;27.55;;;13.60;99.90;;;;;;5071229;28;20052;-69
2021/08/28 01:31:54;;;;;;;41.63;28.55;;;13.60;99.90;;;;;;5112256;27;20396;-69
2021/08/28 01:34:21;;;;;;;45.72;28.17;;;13.60;99.90;;;;;;5112000;28;20346;-69
2021/08/28 01:36:48;;;;;;;41.72;27.83;;;13.60;99.90;;;;;;5111897;28;20016;-69
2021/08/28 01:39:15;;;;;;;43.92;27.83;;;13.60;99.90;;;;;;5111861;28;20030;-69
2021/08/28 01:41:43;;;;;;;46.90;28.58;;;13.60;99.90;;;;;;5111817;28;20546;-69
2021/08/28 01:44:11;;;;;;;48.00;29.08;;;13.60;99.90;;;;;;5111809;28;20035;-69
2021/08/28 01:46:37;;;;;;;48.60;30.13;;;13.60;99.90;;;;;;5111166;28;20030;-69
2021/08/28 01:49:03;;;;;;;51.70;30.90;;;13.60;99.90;;;;;;5111407;28;20421;-69
2021/08/28 01:51:29;;;;;;;46.50;29.25;;;13.60;99.90;;;;;;5111557;28;20081;-69
2021/08/28 01:53:55;;;;;;;48.75;30.02;;;13.60;99.90;;;;;;5111242;28;20085;-69
2021/08/28 01:56:21;;;;;;;46.47;30.85;;;13.60;99.90;;;;;;5111243;28;20028;-69
2021/08/28 01:58:47;;;;;;;52.42;30.83;;;13.60;99.90;;;;;;5111228;28;20023;-69
2021/08/28 02:01:12;;;;;;;47.70;30.25;;;13.60;99.90;;;;;;5111151;28;20038;-69
2021/08/28 02:03:38;;;;;;;44.90;28.75;;;13.70;99.90;;;;;;5111366;28;20055;-69
2021/08/28 02:06:04;;;;;;;51.83;29.73;;;13.60;99.90;;;;;;5111344;28;20024;-69
2021/08/28 02:08:40;;;;;;;60.30;31.65;;;13.60;99.90;;;;;;5111322;28;20100;-69
2021/08/28 02:11:14;;;;;;;54.58;32.63;;;13.70;99.90;;;;;;5111197;28;20062;-69
2021/08/28 02:13:47;;;;;;;55.90;32.47;;;13.70;99.90;;;;;;5110072;28;20051;-69
2021/08/28 02:16:17;;;;;;;53.97;31.35;;;13.70;99.90;;;;;;5109733;28;20089;-69
2021/08/28 02:19:22;;;;;;;56.50;29.80;;;13.70;99.90;;;;;;5111116;28;20024;-69
2021/08/28 02:21:52;;;;;;;55.70;30.88;;;13.70;99.90;;;;;;5110422;28;20154;-69
2021/08/28 02:24:23;;;;;;;51.88;29.27;;;13.80;99.90;;;;;;5111017;28;20061;-69
2021/08/28 02:26:55;;;;;;;57.58;32.17;;;13.80;99.90;;;;;;5110353;28;20026;-69
2021/08/28 02:29:29;;;;;;;59.38;33.08;;;13.80;99.90;;;;;;5109363;28;20451;-69
2021/08/28 02:31:59;;;;;;;56.30;30.48;;;13.80;99.90;;;;;;5110872;28;20090;-69
2021/08/28 02:34:27;;;;;;;61.15;31.27;;;13.80;99.90;;;;;;5109560;28;20027;-69
2021/08/28 02:36:52;;;;;;;56.03;30.48;;;13.80;99.90;;;;;;5110514;28;20027;-69
2021/08/28 02:39:19;;;;;;;56.03;30.20;;;13.80;99.90;;;;;;5110444;28;20029;-69
2021/08/28 02:41:46;;;;;;;56.63;31.15;;;13.80;99.90;;;;;;5105291;28;20024;-69
2021/08/28 02:44:13;;;;;;;58.25;31.55;;;13.80;99.90;;;;;;5097072;28;20073;-69
2021/08/28 02:46:40;;;;;;;59.35;30.52;;;13.80;99.90;;;;;;5097057;28;20024;-69
2021/08/28 02:49:07;;;;;;;61.38;33.35;;;13.80;99.90;;;;;;5096989;28;20027;-69
2021/08/28 02:51:36;;;;;;;56.45;31.88;;;13.70;99.90;;;;;;5095055;28;20388;-69
2021/08/28 02:54:03;;;;;;;64.90;31.67;;;13.80;99.90;;;;;;5096645;28;20077;-69
2021/08/28 02:56:30;;;;;;;63.47;31.60;;;13.80;99.90;;;;;;5096811;28;20016;-69
2021/08/28 02:58:56;;;;;;;59.17;32.17;;;13.80;99.90;;;;;;5096520;28;20020;-69
2021/08/28 03:01:25;;;;;;;61.97;32.08;;;13.80;99.90;;;;;;5096190;28;20074;-68
2021/08/28 03:03:51;;;;;;;63.78;33.25;;;13.80;99.90;;;;;;5095567;28;20016;-69
2021/08/28 03:06:18;;;;;;;62.22;32.33;;;13.80;99.90;;;;;;5096645;28;20028;-69
2021/08/28 03:08:44;;;;;;;67.72;33.92;;;13.80;99.90;;;;;;5096301;28;20020;-68
2021/08/28 03:11:12;;;;;;;67.25;33.95;;;13.80;99.90;;;;;;5096484;28;20031;-69
2021/08/28 03:13:38;;;;;;;69.60;33.47;;;13.80;99.90;;;;;;5096206;28;20099;-69
2021/08/28 03:16:04;;;;;;;59.97;32.08;;;13.80;99.90;;;;;;5096497;28;20041;-70
2021/08/28 03:18:40;;;;;;;61.30;32.30;;;13.80;99.90;;;;;;5096408;28;20020;-69
2021/08/28 03:21:06;;;;;;;61.33;32.58;;;13.80;99.90;;;;;;5094930;28;20466;-69
2021/08/28 03:23:34;;;;;;;59.95;30.88;;;13.80;99.90;;;;;;5096043;28;20062;-69
2021/08/28 03:26:00;;;;;;;59.08;32.28;;;13.90;99.90;;;;;;5096028;28;20039;-69
2021/08/28 03:28:27;;;;;;;60.40;30.60;;;13.80;99.90;;;;;;5096201;28;20024;-69
2021/08/28 03:30:53;;;;;;;53.83;30.52;;;13.90;99.90;;;;;;5095614;28;20040;-69
2021/08/28 03:33:20;;;;;;;65.85;31.88;;;13.80;99.90;;;;;;5095852;28;20016;-69
2021/08/28 03:35:48;;;;;;;56.45;30.33;;;13.80;99.90;;;;;;5096046;28;20032;-69
2021/08/28 03:38:14;;;;;;;55.05;31.30;;;13.90;99.90;;;;;;5095749;28;20020;-69
2021/08/28 03:40:40;;;;;;;51.10;29.98;;;13.90;99.90;;;;;;5095998;28;20028;-69
2021/08/28 03:43:09;;;;;;;59.17;30.17;;;13.90;99.90;;;;;;5095938;28;20077;-69
2021/08/28 03:45:34;;;;;;;56.47;31.02;;;13.90;99.90;;;;;;5095858;28;20028;-69
2021/08/28 03:48:01;;;;;;;57.10;30.25;;;13.90;99.90;;;;;;5095805;28;20051;-69
2021/08/28 03:50:27;;;;;;;52.00;30.45;;;13.90;99.90;;;;;;5095136;28;20020;-69
2021/08/28 03:52:52;;;;;;;59.25;31.67;;;13.90;99.90;;;;;;5094784;28;20108;-69
2021/08/28 03:55:18;;;;;;;57.38;31.50;;;13.90;99.90;;;;;;5093298;28;20446;-69
2021/08/28 03:57:44;;;;;;;58.75;31.75;;;13.90;99.90;;;;;;5093902;28;20024;-69
2021/08/28 04:00:10;;;;;;;60.58;31.00;;;13.90;99.90;;;;;;5095270;28;20024;-69
2021/08/28 04:02:36;;;;;;;62.10;33.22;;;13.90;99.90;;;;;;5095543;28;20373;-69
2021/08/28 04:05:01;;;;;;;61.22;32.53;;;13.90;99.90;;;;;;5095452;28;20049;-69
2021/08/28 04:07:27;;;;;;;53.60;29.88;;;14.00;99.90;;;;;;5093890;28;20035;-69
2021/08/28 04:09:52;;;;;;;57.55;31.08;;;14.00;99.90;;;;;;5095310;28;20036;-69
2021/08/28 04:12:18;;;;;;;58.80;32.65;;;14.00;99.90;;;;;;5095339;28;20424;-69
2021/08/28 04:14:43;;;;;;;55.95;31.15;;;14.00;99.90;;;;;;5095004;28;20020;-68
2021/08/28 04:17:09;;;;;;;59.20;31.75;;;14.00;99.90;;;;;;5094925;28;20107;-69
2021/08/28 04:19:34;;;;;;;62.15;32.50;;;14.00;99.90;;;;;;5093416;28;20032;-69
2021/08/28 04:22:00;;;;;;;63.13;33.25;;;14.00;99.90;;;;;;5095193;28;20024;-69
2021/08/28 04:24:26;;;;;;;60.13;32.53;;;14.10;99.90;;;;;;5095131;28;20482;-69
2021/08/28 04:26:51;;;;;;;74.97;35.85;;;14.10;99.90;;;;;;5095074;28;20032;-69
2021/08/28 04:29:17;;;;;;;66.32;33.35;;;14.10;99.90;;;;;;5095019;28;20376;-69
2021/08/28 04:31:42;;;;;;;67.65;34.40;;;14.10;99.90;;;;;;5092990;28;20040;-69
2021/08/28 04:34:08;;;;;;;64.93;34.38;;;14.00;99.90;;;;;;5094986;28;20020;-70
2021/08/28 04:36:33;;;;;;;62.35;34.55;;;14.00;99.90;;;;;;5094625;28;20019;-69
2021/08/28 04:39:00;;;;;;;67.38;36.40;;;14.00;99.90;;;;;;5094573;28;20035;-69
2021/08/28 04:41:26;;;;;;;81.70;36.90;;;13.90;99.90;;;;;;5094822;28;20026;-69
2021/08/28 04:43:51;;;;;;;72.72;36.15;;;14.00;99.90;;;;;;5094532;28;20024;-69
2021/08/28 04:46:17;;;;;;;75.28;38.03;;;14.00;99.90;;;;;;5094427;28;20035;-69
2021/08/28 04:48:43;;;;;;;70.97;37.63;;;14.00;99.90;;;;;;5094686;28;20473;-69
2021/08/28 04:51:08;;;;;;;79.70;37.53;;;14.00;99.90;;;;;;5094601;28;20347;-69
2021/08/28 04:53:34;;;;;;;80.50;38.05;;;14.00;99.90;;;;;;5093366;28;20081;-69
2021/08/28 04:56:00;;;;;;;74.85;38.35;;;14.00;99.90;;;;;;5093436;28;20027;-69
2021/08/28 04:58:25;;;;;;;68.32;35.67;;;14.00;99.90;;;;;;5076368;28;20361;-69
2021/08/28 05:00:50;;;;;;;77.65;37.40;;;14.00;99.90;;;;;;5094481;28;20024;-69
2021/08/28 05:03:18;;;;;;;73.13;38.58;;;14.00;99.90;;;;;;5094147;28;20031;-68
2021/08/28 05:05:43;;;;;;;76.25;37.75;;;14.00;99.90;;;;;;5093936;28;20525;-69
2021/08/28 05:08:09;;;;;;;74.00;37.50;;;14.00;99.90;;;;;;5094360;28;20107;-69
2021/08/28 05:10:35;;;;;;;69.70;37.72;;;14.10;99.90;;;;;;5094304;28;20032;-69
2021/08/28 05:13:00;;;;;;;70.75;37.42;;;14.00;99.90;;;;;;5094357;28;20111;-69
2021/08/28 05:15:26;;;;;;;75.00;36.13;;;14.10;99.90;;;;;;5094297;28;20350;-69
2021/08/28 05:17:51;;;;;;;61.45;33.22;;;14.10;99.90;;;;;;5094265;28;20024;-69
2021/08/28 05:20:17;;;;;;;67.28;33.75;;;14.10;99.90;;;;;;5094214;28;20020;-69
2021/08/28 05:22:42;;;;;;;65.40;34.45;;;14.10;99.90;;;;;;5092408;28;20036;-69
2021/08/28 05:25:08;;;;;;;59.47;33.45;;;14.10;99.90;;;;;;5075623;28;20038;-69
2021/08/28 05:27:34;;;;;;;60.00;32.25;;;14.20;99.90;;;;;;5092659;28;20377;-69
2021/08/28 05:29:59;;;;;;;69.13;34.65;;;14.10;99.90;;;;;;5093533;28;20044;-69
2021/08/28 05:32:25;;;;;;;64.85;33.88;;;14.10;99.90;;;;;;5093803;28;20443;-69
2021/08/28 05:34:53;;;;;;;63.15;34.55;;;14.10;99.90;;;;;;5093803;28;20028;-69
2021/08/28 05:37:18;;;;;;;59.67;32.67;;;14.20;99.90;;;;;;5094103;28;20012;-69
2021/08/28 05:39:44;;;;;;;62.20;32.83;;;14.20;99.90;;;;;;5093753;28;20069;-69
2021/08/28 05:42:09;;;;;;;62.90;32.10;;;14.20;99.90;;;;;;5093995;28;20025;-69
2021/08/28 05:44:35;;;;;;;55.40;31.10;;;14.20;99.90;;;;;;5093992;28;20107;-69
2021/08/28 05:47:00;;;;;;;58.90;31.75;;;14.20;99.90;;;;;;5093709;28;20046;-69
2021/08/28 05:49:26;;;;;;;59.65;30.65;;;14.20;99.90;;;;;;5092828;28;20531;-69
2021/08/28 05:51:51;;;;;;;59.80;31.60;;;14.10;99.90;;;;;;5093869;28;20028;-69
2021/08/28 05:54:17;;;;;;;51.10;29.83;;;14.20;99.90;;;;;;5093666;28;20049;-69
2021/08/28 05:56:42;;;;;;;57.83;30.60;;;14.20;99.90;;;;;;5093319;28;20154;-69
2021/08/28 05:59:08;;;;;;;48.58;28.98;;;14.20;99.90;;;;;;5093864;28;20134;-69
2021/08/28 06:01:33;;;;;;;45.00;27.15;;;14.20;99.90;;;;;;5093556;28;20028;-69
2021/08/28 06:03:59;;;;;;;43.17;26.15;;;14.20;99.90;;;;;;5093823;28;20032;-69
2021/08/28 06:06:24;;;;;;;39.78;24.80;;;14.20;99.90;;;;;;5093523;28;20040;-69
2021/08/28 06:08:50;;;;;;;39.67;24.02;;;14.30;99.90;;;;;;5093784;28;20025;-69
2021/08/28 06:11:16;;;;;;;37.45;22.33;;;14.30;99.90;;;;;;5093416;28;20354;-69
2021/08/28 06:13:41;;;;;;;31.98;21.33;;;14.30;99.90;;;;;;5093747;28;20035;-69
2021/08/28 06:16:07;;;;;;;33.92;20.52;;;14.40;99.90;;;;;;5093738;28;20373;-69
2021/08/28 06:18:32;;;;;;;26.40;18.75;;;14.50;99.90;;;;;;5097206;28;20429;-69
2021/08/28 06:20:58;;;;;;;24.70;16.65;;;14.60;99.90;;;;;;5097465;28;20039;-69
2021/08/28 06:23:24;;;;;;;22.27;15.40;;;14.70;99.90;;;;;;5097536;28;20020;-69
2021/08/28 06:25:50;;;;;;;17.75;13.27;;;14.80;99.90;;;;;;5096019;28;20028;-69
2021/08/28 06:28:16;;;;;;;16.73;12.68;;;15.10;99.90;;;;;;5097097;28;20115;-69
2021/08/28 06:30:42;;;;;;;15.50;11.55;;;15.20;99.90;;;;;;5096766;28;20480;-69
2021/08/28 06:33:08;;;;;;;18.75;11.52;;;15.40;99.90;;;;;;5097022;28;20012;-68
2021/08/28 06:35:34;;;;;;;14.63;10.40;;;15.50;99.90;;;;;;5097222;28;20048;-68
2021/08/28 06:38:00;;;;;;;16.58;10.98;;;15.50;99.90;;;;;;5096225;28;20048;-69
2021/08/28 06:40:25;;;;;;;15.18;11.32;;;15.50;99.90;;;;;;5097188;28;20102;-69
2021/08/28 06:42:51;;;;;;;19.00;11.70;;;15.50;99.90;;;;;;5096908;28;20527;-69
2021/08/28 06:45:16;;;;;;;13.88;11.07;;;15.70;99.90;;;;;;5078333;28;20050;-69
2021/08/28 06:47:42;;;;;;;15.50;11.40;;;15.70;99.90;;;;;;5096985;28;20077;-69
2021/08/28 06:50:08;;;;;;;15.10;11.15;;;15.60;99.90;;;;;;5078159;28;20106;-69
2021/08/28 06:52:33;;;;;;;15.35;11.45;;;15.50;99.90;;;;;;5096006;28;20489;-68
2021/08/28 06:54:59;;;;;;;17.77;11.30;;;15.60;99.90;;;;;;5078108;28;20024;-69
2021/08/28 06:57:24;;;;;;;15.90;12.32;;;15.70;99.90;;;;;;5094995;28;20031;-69
2021/08/28 06:59:50;;;;;;;13.60;11.48;;;15.80;99.90;;;;;;5096731;28;20028;-70
2021/08/28 07:02:15;;;;;;;14.63;11.32;;;15.90;99.90;;;;;;5096439;28;20024;-69
2021/08/28 07:04:41;;;;;;;16.45;12.32;;;15.80;99.90;;;;;;5095524;28;20453;-70
2021/08/28 07:07:07;;;;;;;19.77;13.10;;;15.70;99.90;;;;;;5078011;28;20046;-69
2021/08/28 07:09:32;;;;;;;19.20;13.95;;;15.60;99.90;;;;;;5096300;28;20078;-69
2021/08/28 07:11:58;;;;;;;18.85;13.68;;;15.60;99.90;;;;;;5077848;28;20028;-69
2021/08/28 07:14:23;;;;;;;15.93;13.05;;;15.50;99.90;;;;;;5096520;28;20028;-69
2021/08/28 07:16:49;;;;;;;17.55;13.07;;;15.50;99.90;;;;;;5094631;28;20024;-69
2021/08/28 07:19:14;;;;;;;22.40;14.30;;;15.60;99.90;;;;;;5096086;28;20035;-69
2021/08/28 07:21:40;;;;;;;16.65;13.48;;;15.60;99.90;;;;;;5096285;28;20066;-69
2021/08/28 07:24:05;;;;;;;17.92;13.32;;;15.70;99.90;;;;;;5095970;28;20024;-70
2021/08/28 07:26:31;;;;;;;20.63;13.93;;;15.70;99.90;;;;;;5096272;28;20036;-70
2021/08/28 07:28:56;;;;;;;18.85;14.25;;;15.70;99.90;;;;;;5077418;28;20134;-70
2021/08/28 07:31:22;;;;;;;19.58;15.00;;;15.70;99.90;;;;;;5095489;28;20040;-69
2021/08/28 07:33:47;;;;;;;20.23;15.35;;;15.70;99.90;;;;;;5096121;28;20027;-69
2021/08/28 07:36:13;;;;;;;19.83;14.95;;;15.70;99.90;;;;;;5095818;28;20058;-69
2021/08/28 07:38:42;;;;;;;21.48;17.00;;;15.90;99.90;;;;;;5094705;28;20016;-69
2021/08/28 07:41:07;;;;;;;21.50;16.40;;;15.80;99.90;;;;;;5095679;28;20028;-69
2021/08/28 07:43:33;;;;;;;21.20;15.98;;;15.90;99.90;;;;;;5095929;28;20028;-70
2021/08/28 07:45:59;;;;;;;22.17;14.00;;;16.00;99.90;;;;;;5095618;28;20093;-69
2021/08/28 07:48:24;;;;;;;15.43;13.10;;;16.40;99.90;;;;;;5077178;28;20032;-69
2021/08/28 07:50:50;;;;;;;15.75;12.80;;;16.80;99.90;;;;;;5095788;28;20028;-68
2021/08/28 07:53:16;;;;;;;15.13;11.43;;;16.90;99.90;;;;;;5095773;28;20043;-69
2021/08/28 07:55:42;;;;;;;15.32;11.25;;;17.30;99.90;;;;;;5095433;28;20039;-70
2021/08/28 07:58:07;;;;;;;13.55;10.90;;;17.30;99.90;;;;;;5095318;28;20020;-70
2021/08/28 08:00:33;;;;;;;12.75;10.88;;;17.30;99.90;;;;;;5095529;28;20477;-70
2021/08/28 08:02:58;;;;;;;11.98;10.13;;;18.30;99.90;;;;;;5095415;28;20424;-69
2021/08/28 08:05:24;;;;;;;13.00;10.32;;;18.50;99.90;;;;;;5095447;28;20024;-68
2021/08/28 08:07:49;;;;;;;14.20;9.77;;;18.30;99.90;;;;;;5076793;28;20024;-69
2021/08/28 08:10:15;;;;;;;10.98;9.25;;;18.70;99.90;;;;;;5095105;28;20137;-69
2021/08/28 08:12:40;;;;;;;13.32;10.35;;;18.70;99.90;;;;;;5095406;28;20373;-70
2021/08/28 08:15:07;;;;;;;14.52;9.70;;;18.40;99.90;;;;;;5095274;28;20035;-70
2021/08/28 08:17:32;;;;;;;12.70;11.05;;;17.90;99.90;;;;;;5095033;28;20019;-69
2021/08/28 08:19:58;;;;;;;11.27;10.07;;;17.30;99.90;;;;;;5094066;28;20024;-69
2021/08/28 08:22:24;;;;;;;16.13;10.65;;;17.80;99.90;;;;;;5093361;28;20024;-69
2021/08/28 08:24:49;;;;;;;12.38;10.50;;;17.80;99.90;;;;;;5093995;28;20024;-69
2021/08/28 08:27:15;;;;;;;13.75;11.48;;;17.40;99.90;;;;;;5076694;28;20089;-69
2021/08/28 08:29:41;;;;;;;15.23;11.65;;;17.30;99.90;;;;;;5093643;28;20024;-70
2021/08/28 08:32:06;;;;;;;12.80;11.45;;;17.40;99.90;;;;;;5094990;28;20485;-69
2021/08/28 08:34:32;;;;;;;13.38;11.40;;;17.20;99.90;;;;;;5093154;28;20024;-69
2021/08/28 08:36:58;;;;;;;15.52;12.30;;;17.00;99.90;;;;;;5093931;28;20024;-69
2021/08/28 08:39:24;;;;;;;15.43;12.32;;;17.10;99.90;;;;;;5075656;28;20465;-69
2021/08/28 08:41:51;;;;;;;15.82;11.57;;;17.10;99.90;;;;;;5094791;28;20045;-69
2021/08/28 08:44:17;;;;;;;16.20;11.70;;;17.30;99.90;;;;;;5093634;28;20039;-69
2021/08/28 08:46:44;;;;;;;15.82;11.68;;;17.40;99.90;;;;;;5094762;28;20035;-69
2021/08/28 08:49:11;;;;;;;13.88;11.00;;;17.70;99.90;;;;;;5093276;28;20480;-69
2021/08/28 08:51:38;;;;;;;14.73;10.98;;;17.90;99.90;;;;;;5094574;28;20024;-69
2021/08/28 08:54:05;;;;;;;14.48;10.70;;;17.90;99.90;;;;;;5094596;28;20103;-70
2021/08/28 08:56:30;;;;;;;11.63;10.00;;;17.70;99.90;;;;;;5094598;28;20048;-70
2021/08/28 08:58:57;;;;;;;12.02;10.73;;;17.40;99.90;;;;;;5093978;28;20091;-69
2021/08/28 09:01:22;;;;;;;14.82;11.18;;;17.30;99.90;;;;;;5093351;28;20043;-69
2021/08/28 09:03:48;;;;;;;14.18;11.32;;;17.40;99.90;;;;;;5093933;28;20037;-69
2021/08/28 09:06:14;;;;;;;11.73;10.52;;;17.40;99.90;;;;;;5093835;28;20028;-69
2021/08/28 09:08:40;;;;;;;11.45;10.23;;;17.40;99.90;;;;;;5094407;28;20066;-70
2021/08/28 09:11:20;;;;;;;13.07;11.52;;;16.90;99.90;;;;;;5093262;28;20374;-69
2021/08/28 09:13:46;;;;;;;13.27;11.85;;;16.80;99.90;;;;;;5094356;28;20016;-69
2021/08/28 09:16:26;;;;;;;14.20;11.40;;;16.70;99.90;;;;;;5094290;28;20043;-69
2021/08/28 09:18:53;;;;;;;15.95;13.27;;;16.90;99.90;;;;;;5094232;28;20039;-69
2021/08/28 09:21:21;;;;;;;15.88;12.95;;;16.90;99.90;;;;;;5093689;28;20016;-69
2021/08/28 09:23:47;;;;;;;15.40;13.48;;;16.90;99.90;;;;;;5092385;28;20080;-69
2021/08/28 09:26:33;;;;;;;15.10;13.18;;;16.80;99.90;;;;;;5093944;28;20020;-69
2021/08/28 09:28:59;;;;;;;14.13;12.73;;;16.80;99.90;;;;;;5093870;28;20050;-69
2021/08/28 09:31:46;;;;;;;13.50;12.10;;;17.00;99.90;;;;;;5092167;28;20068;-69
2021/08/28 09:34:29;;;;;;;12.32;11.02;;;17.00;99.90;;;;;;5092272;28;20016;-69
2021/08/28 09:37:00;;;;;;;11.75;10.57;;;17.40;99.90;;;;;;5093555;28;20021;-69
2021/08/28 09:39:44;;;;;;;11.50;9.35;;;18.90;99.90;;;;;;5093772;28;20027;-70
2021/08/28 09:42:16;;;;;;;8.90;8.05;;;19.60;99.90;;;;;;5094029;28;20104;-70
2021/08/28 09:44:43;;;;;;;8.60;7.50;;;20.20;99.90;;;;;;5093985;28;20035;-70
2021/08/28 09:49:51;;;;;;;9.23;8.27;;;20.10;99.90;;;;;;5112188;27;20384;-69
2021/08/28 09:52:20;;;;;;;9.82;7.88;;;18.80;99.90;;;;;;5111930;28;20456;-69
2021/08/28 09:54:46;;;;;;;10.40;7.43;;;18.70;99.90;;;;;;5110096;28;20023;-69
2021/08/28 09:57:12;;;;;;;8.48;7.55;;;18.90;99.90;;;;;;5111789;28;20020;-69
2021/08/28 09:59:38;;;;;;;9.98;7.82;;;18.90;99.90;;;;;;5111302;28;20027;-70
2021/08/28 10:02:06;;;;;;;8.73;7.82;;;18.90;99.90;;;;;;5111446;28;20131;-69
2021/08/28 10:04:48;;;;;;;9.98;7.65;;;19.00;99.90;;;;;;5111685;28;20027;-69
2021/08/28 10:07:23;;;;;;;8.80;7.40;;;18.40;99.90;;;;;;5111078;28;20023;-69
2021/08/28 10:09:54;;;;;;;10.68;8.48;;;18.30;99.90;;;;;;5111639;28;20051;-69
2021/08/28 10:12:20;;;;;;;7.63;6.88;;;18.20;99.90;;;;;;5110138;28;20020;-69
2021/08/28 10:14:48;;;;;;;5.97;5.38;;;18.30;99.90;;;;;;5111258;28;20062;-69
2021/08/28 10:17:14;;;;;;;7.35;4.82;;;18.40;99.90;;;;;;5111149;28;20023;-70
2021/08/28 10:19:42;;;;;;;5.93;4.38;;;18.90;99.90;;;;;;5111135;28;20080;-70
2021/08/28 10:22:11;;;;;;;4.07;3.67;;;19.70;99.90;;;;;;5110774;28;20537;-70
2021/08/28 10:24:37;;;;;;;4.43;3.58;;;21.20;99.90;;;;;;5109501;28;20040;-69
2021/08/28 10:27:03;;;;;;;3.30;3.00;;;21.50;99.90;;;;;;5109730;28;20028;-69
2021/08/28 10:29:29;;;;;;;4.30;3.90;;;21.40;99.90;;;;;;5109715;28;20469;-69
2021/08/28 10:31:54;;;;;;;5.15;4.22;;;20.90;99.90;;;;;;5111213;28;20484;-69
2021/08/28 10:34:20;;;;;;;5.40;4.90;;;19.30;99.90;;;;;;5111192;28;20508;-69
2021/08/28 10:36:47;;;;;;;5.57;4.18;;;18.80;99.90;;;;;;5110540;28;20031;-69
2021/08/28 10:39:12;;;;;;;5.15;4.60;;;19.00;99.90;;;;;;5110758;28;20020;-70
2021/08/28 10:41:39;;;;;;;4.63;4.22;;;19.40;99.90;;;;;;5109852;28;20106;-69
2021/08/28 10:44:05;;;;;;;4.70;4.30;;;19.50;99.90;;;;;;5110577;28;20020;-70
2021/08/28 10:46:31;;;;;;;7.47;4.30;;;20.00;99.90;;;;;;5109313;28;20369;-70
2021/08/28 10:49:00;;;;;;;4.72;3.80;;;20.10;99.90;;;;;;5110115;28;20040;-70
2021/08/28 10:51:31;;;;;;;4.45;4.03;;;20.00;99.90;;;;;;5110804;28;20449;-70
2021/08/28 10:54:05;;;;;;;5.20;4.70;;;20.10;99.90;;;;;;5110729;28;20073;-70
2021/08/28 10:56:51;;;;;;;7.55;5.20;;;19.50;99.90;;;;;;5108820;28;20052;-70
2021/08/28 10:59:34;;;;;;;6.72;6.10;;;18.90;99.90;;;;;;5107647;28;20370;-69
2021/08/28 11:02:07;;;;;;;6.53;5.93;;;18.40;99.90;;;;;;5097043;28;20073;-69
2021/08/28 11:04:48;;;;;;;7.38;5.60;;;18.40;99.90;;;;;;5096762;28;20088;-69
2021/08/28 11:07:22;;;;;;;7.75;6.00;;;18.50;99.90;;;;;;5096899;28;20073;-69
2021/08/28 11:13:01;;;;;;;6.30;5.70;;;18.60;99.90;;;;;;5112179;27;20354;-69
2021/08/28 11:18:12;;;;;;;6.88;5.35;;;19.50;99.90;;;;;;5112253;27;20400;-69
2021/08/28 11:20:48;;;;;;;6.88;5.07;;;19.80;99.90;;;;;;5110691;28;20453;-70
2021/08/28 11:23:16;;;;;;;5.75;5.20;;;20.00;99.90;;;;;;5110564;28;20427;-69
2021/08/28 11:25:46;;;;;;;6.97;5.68;;;19.90;99.90;;;;;;5111760;28;20020;-69
2021/08/28 11:28:13;;;;;;;8.13;6.30;;;19.70;99.90;;;;;;5111481;28;20376;-69
2021/08/28 11:33:32;;;;;;;7.07;5.88;;;19.40;99.90;;;;;;5112166;27;20355;-69
2021/08/28 11:36:03;;;;;;;6.38;5.68;;;19.80;99.90;;;;;;5111915;28;20024;-69
2021/08/28 11:38:35;;;;;;;6.28;5.72;;;19.80;99.90;;;;;;5111261;28;20024;-69
2021/08/28 11:41:06;;;;;;;6.18;5.57;;;19.90;99.90;;;;;;5111483;28;20415;-69
2021/08/28 11:43:33;;;;;;;5.15;4.65;;;19.60;99.90;;;;;;5110643;28;20024;-69
2021/08/28 11:46:02;;;;;;;7.03;5.13;;;19.70;99.90;;;;;;5112024;28;20051;-69
2021/08/28 11:48:29;;;;;;;5.30;4.70;;;19.70;99.90;;;;;;5111454;28;20031;-69
2021/08/28 11:50:55;;;;;;;6.13;4.60;;;19.50;99.90;;;;;;5110745;28;20502;-69
2021/08/28 11:53:27;;;;;;;6.35;4.63;;;19.50;99.90;;;;;;5110948;28;20040;-69
2021/08/28 11:56:02;;;;;;;5.68;5.05;;;19.40;99.90;;;;;;5111278;28;20016;-69
2021/08/28 11:58:27;;;;;;;5.63;4.95;;;19.40;99.90;;;;;;5110041;28;20112;-69
2021/08/28 12:00:53;;;;;;;4.10;3.65;;;19.20;99.90;;;;;;5111180;28;20094;-69
2021/08/28 12:03:18;;;;;;;4.43;3.88;;;19.20;99.90;;;;;;5111124;28;20088;-69
2021/08/28 12:05:44;;;;;;;5.00;4.30;;;19.40;99.90;;;;;;5111353;28;20048;-69
2021/08/28 12:08:14;;;;;;;4.90;3.80;;;19.70;99.90;;;;;;5110060;28;20485;-68
2021/08/28 12:10:43;;;;;;;7.65;4.60;;;19.70;99.90;;;;;;5111277;28;20031;-69
2021/08/28 12:13:09;;;;;;;5.10;4.55;;;20.00;99.90;;;;;;5110830;28;20027;-69
2021/08/28 12:15:34;;;;;;;4.15;3.60;;;20.30;99.90;;;;;;5110923;28;20481;-68
2021/08/28 12:18:00;;;;;;;4.22;3.83;;;20.50;99.90;;;;;;5109622;28;20020;-69
2021/08/28 12:20:28;;;;;;;4.93;4.43;;;20.60;99.90;;;;;;5111055;28;20031;-67
2021/08/28 12:22:56;;;;;;;5.00;4.50;;;20.20;99.90;;;;;;5109840;28;20093;-69
2021/08/28 12:25:22;;;;;;;4.47;4.03;;;19.90;99.90;;;;;;5109276;28;20019;-69
2021/08/28 12:27:49;;;;;;;6.32;4.20;;;19.90;99.90;;;;;;5110632;28;20024;-70
2021/08/28 12:30:15;;;;;;;5.20;4.70;;;19.90;99.90;;;;;;5110605;28;20020;-69
2021/08/28 12:32:41;;;;;;;6.18;4.70;;;19.40;99.90;;;;;;5110124;28;20040;-70
2021/08/28 12:35:07;;;;;;;4.97;4.40;;;19.40;99.90;;;;;;5109689;28;20346;-69
2021/08/28 12:37:33;;;;;;;7.53;6.45;;;19.00;99.90;;;;;;5110499;28;20373;-69
2021/08/28 12:40:02;;;;;;;9.05;7.65;;;18.60;99.90;;;;;;5108882;28;20448;-69
2021/08/28 12:42:31;;;;;;;11.20;7.85;;;18.40;99.90;;;;;;5109160;28;20404;-69
2021/08/28 12:44:59;;;;;;;12.05;9.18;;;18.10;99.90;;;;;;5095009;28;20020;-69
2021/08/28 12:47:29;;;;;;;11.35;9.63;;;18.10;99.90;;;;;;5096680;28;20377;-69
2021/08/28 12:49:57;;;;;;;11.73;9.75;;;18.20;99.90;;;;;;5095474;28;20426;-69